< < Back
Terminal Aerodrome Forecast


Current Version              Previous Versions:   1  2  3  4  5  6  7  8  9  

Terminal Aerodrome Forecast

730
FTUS42 KCHS 222300
TAFCHS
TAF
KCHS 222332Z 2300/2324 VRB04KT P6SM SCT020 BKN200
     FM231330 22004KT P6SM SCT025
     FM231800 19009KT P6SM VCTS SCT030CB BKN150=

Latest METAR

250
SAUS80 KWBC 230600
MTRCHS
METAR KCHS 230556Z 00000KT 10SM SCT250 24/23 A3008 RMK AO2 SLP184
T02440228 10278 20244 56008


USA.gov is the U.S. government's official web portal to all federal, state and local government web resources and services.